Time;durP1;ratioP1;P1;durP2;ratioP2;P2;SDS_P1;SDS_P2;PMS_P1;PMS_P2;Temp;Humidity;BMP_temperature;BMP_pressure;BME280_temperature;BME280_humidity;BME280_pressure;Samples;Min_cycle;Max_cycle;Signal;HPM_P1;HPM_P2
2022/03/04 00:00:46;;;;;;;14.7;9.15;;;;;;;-3.85;37.04199;95072.89;;;;
2022/03/04 00:01:46;;;;;;;14.7;9.15;;;;;;;-3.85;37.04199;95072.89;;;;
2022/03/04 00:02:47;;;;;;;14.7;9.15;;;;;;;-3.85;37.04199;95072.89;;;;
2022/03/04 00:03:48;;;;;;;14.7;9.15;;;;;;;-3.85;37.04199;95072.89;;;;
2022/03/04 00:04:49;;;;;;;14.7;9.15;;;;;;;-3.85;37.04199;95072.89;;;;
2022/03/04 00:05:49;;;;;;;14.7;9.15;;;;;;;-3.85;37.04199;95072.89;;;;
2022/03/04 00:06:50;;;;;;;14.7;9.15;;;;;;;-3.85;37.04199;95072.89;;;;
2022/03/04 00:07:50;;;;;;;14.7;9.15;;;;;;;-3.85;37.04199;95072.89;;;;
2022/03/04 00:08:51;;;;;;;14.3;9.849999;;;;;;;-3.91;37.65234;95080.18;;;;
2022/03/04 00:09:52;;;;;;;14.3;9.849999;;;;;;;-3.91;37.65234;95080.18;;;;
2022/03/04 00:10:52;;;;;;;14.3;9.849999;;;;;;;-3.91;37.65234;95080.18;;;;
2022/03/04 00:11:53;;;;;;;14.3;9.849999;;;;;;;-3.91;37.65234;95080.18;;;;
2022/03/04 00:12:53;;;;;;;14.3;9.849999;;;;;;;-3.91;37.65234;95080.18;;;;
2022/03/04 00:13:54;;;;;;;14.3;9.849999;;;;;;;-3.91;37.65234;95080.18;;;;
2022/03/04 00:14:55;;;;;;;14.3;9.849999;;;;;;;-3.91;37.65234;95080.18;;;;
2022/03/04 00:15:55;;;;;;;14.3;9.849999;;;;;;;-3.91;37.65234;95080.18;;;;
2022/03/04 00:16:56;;;;;;;14.3;9.849999;;;;;;;-3.91;37.65234;95080.18;;;;
2022/03/04 00:17:56;;;;;;;14.3;9.849999;;;;;;;-3.91;37.65234;95080.18;;;;
2022/03/04 00:19:13;;;;;;;15.4;10.5;;;;;;;-4;38.13574;95086.78;;;;
2022/03/04 00:20:13;;;;;;;15.4;10.5;;;;;;;-4;38.13574;95086.78;;;;
2022/03/04 00:21:14;;;;;;;15.4;10.5;;;;;;;-4;38.13574;95086.78;;;;
2022/03/04 00:22:14;;;;;;;15.4;10.5;;;;;;;-4;38.13574;95086.78;;;;
2022/03/04 00:23:15;;;;;;;15.4;10.5;;;;;;;-4;38.13574;95086.78;;;;
2022/03/04 00:24:16;;;;;;;15.4;10.5;;;;;;;-4;38.13574;95086.78;;;;
2022/03/04 00:25:19;;;;;;;15.4;10.5;;;;;;;-4;38.13574;95086.78;;;;
2022/03/04 00:26:20;;;;;;;15.4;10.5;;;;;;;-4;38.13574;95086.78;;;;
2022/03/04 00:27:20;;;;;;;15.4;10.5;;;;;;;-4;38.13574;95086.78;;;;
2022/03/04 00:28:21;;;;;;;15.4;10.5;;;;;;;-4;38.13574;95086.78;;;;
2022/03/04 00:29:21;;;;;;;14.05;9.950001;;;;;;;-4.17;38.64355;95094.62;;;;
2022/03/04 00:30:22;;;;;;;14.05;9.950001;;;;;;;-4.17;38.64355;95094.62;;;;
2022/03/04 00:31:23;;;;;;;14.05;9.950001;;;;;;;-4.17;38.64355;95094.62;;;;
2022/03/04 00:32:24;;;;;;;14.05;9.950001;;;;;;;-4.17;38.64355;95094.62;;;;
2022/03/04 00:33:25;;;;;;;14.05;9.950001;;;;;;;-4.17;38.64355;95094.62;;;;
2022/03/04 00:34:25;;;;;;;14.05;9.950001;;;;;;;-4.17;38.64355;95094.62;;;;
2022/03/04 00:35:26;;;;;;;14.05;9.950001;;;;;;;-4.17;38.64355;95094.62;;;;
2022/03/04 00:36:26;;;;;;;14.05;9.950001;;;;;;;-4.17;38.64355;95094.62;;;;
2022/03/04 00:37:28;;;;;;;14.05;9.950001;;;;;;;-4.17;38.64355;95094.62;;;;
2022/03/04 00:38:28;;;;;;;14.05;9.950001;;;;;;;-4.17;38.64355;95094.62;;;;
2022/03/04 00:39:29;;;;;;;14.05;9.950001;;;;;;;-4.17;38.64355;95094.62;;;;
2022/03/04 00:40:29;;;;;;;13.2;9.5;;;;;;;-4.32;39.08887;95095.64;;;;
2022/03/04 00:41:30;;;;;;;13.2;9.5;;;;;;;-4.32;39.08887;95095.64;;;;
2022/03/04 00:42:31;;;;;;;13.2;9.5;;;;;;;-4.32;39.08887;95095.64;;;;
2022/03/04 00:43:31;;;;;;;13.2;9.5;;;;;;;-4.32;39.08887;95095.64;;;;
2022/03/04 00:44:32;;;;;;;13.2;9.5;;;;;;;-4.32;39.08887;95095.64;;;;
2022/03/04 00:45:32;;;;;;;13.2;9.5;;;;;;;-4.32;39.08887;95095.64;;;;
2022/03/04 00:46:33;;;;;;;13.2;9.5;;;;;;;-4.32;39.08887;95095.64;;;;
2022/03/04 00:47:34;;;;;;;13.2;9.5;;;;;;;-4.32;39.08887;95095.64;;;;
2022/03/04 00:48:35;;;;;;;13.2;9.5;;;;;;;-4.32;39.08887;95095.64;;;;
2022/03/04 00:49:35;;;;;;;13.2;9.5;;;;;;;-4.32;39.08887;95095.64;;;;
2022/03/04 00:50:35;;;;;;;13.2;9.5;;;;;;;-4.32;39.08887;95095.64;;;;
2022/03/04 00:51:36;;;;;;;13.05;9.45;;;;;;;-4.42;39.57031;95101.97;;;;
2022/03/04 00:52:36;;;;;;;13.05;9.45;;;;;;;-4.42;39.57031;95101.97;;;;
2022/03/04 00:53:37;;;;;;;13.05;9.45;;;;;;;-4.42;39.57031;95101.97;;;;
2022/03/04 00:54:39;;;;;;;13.05;9.45;;;;;;;-4.42;39.57031;95101.97;;;;
2022/03/04 00:55:39;;;;;;;13.05;9.45;;;;;;;-4.42;39.57031;95101.97;;;;
2022/03/04 00:56:40;;;;;;;13.05;9.45;;;;;;;-4.42;39.57031;95101.97;;;;
2022/03/04 00:57:42;;;;;;;13.05;9.45;;;;;;;-4.42;39.57031;95101.97;;;;
2022/03/04 00:58:42;;;;;;;13.05;9.45;;;;;;;-4.42;39.57031;95101.97;;;;
2022/03/04 00:59:43;;;;;;;13.05;9.45;;;;;;;-4.42;39.57031;95101.97;;;;
2022/03/04 01:00:43;;;;;;;13.05;9.45;;;;;;;-4.42;39.57031;95101.97;;;;
2022/03/04 01:01:44;;;;;;;13.55;9.750001;;;;;;;-4.5;40.03125;95096.64;;;;
2022/03/04 01:02:44;;;;;;;13.55;9.750001;;;;;;;-4.5;40.03125;95096.64;;;;
2022/03/04 01:03:45;;;;;;;13.55;9.750001;;;;;;;-4.5;40.03125;95096.64;;;;
2022/03/04 01:04:45;;;;;;;13.55;9.750001;;;;;;;-4.5;40.03125;95096.64;;;;
2022/03/04 01:05:46;;;;;;;13.55;9.750001;;;;;;;-4.5;40.03125;95096.64;;;;
2022/03/04 01:06:46;;;;;;;13.55;9.750001;;;;;;;-4.5;40.03125;95096.64;;;;
2022/03/04 01:07:47;;;;;;;13.55;9.750001;;;;;;;-4.5;40.03125;95096.64;;;;
2022/03/04 01:08:48;;;;;;;13.55;9.750001;;;;;;;-4.5;40.03125;95096.64;;;;
2022/03/04 01:09:48;;;;;;;13.55;9.750001;;;;;;;-4.5;40.03125;95096.64;;;;
2022/03/04 01:10:49;;;;;;;13.55;9.750001;;;;;;;-4.5;40.03125;95096.64;;;;
2022/03/04 01:11:50;;;;;;;13.55;9.750001;;;;;;;-4.5;40.03125;95096.64;;;;
2022/03/04 01:12:50;;;;;;;16.8;10.85;;;;;;;-4.6;40.4082;95094.06;;;;
2022/03/04 01:13:51;;;;;;;16.8;10.85;;;;;;;-4.6;40.4082;95094.06;;;;
2022/03/04 01:14:54;;;;;;;16.8;10.85;;;;;;;-4.6;40.4082;95094.06;;;;
2022/03/04 01:15:56;;;;;;;16.8;10.85;;;;;;;-4.6;40.4082;95094.06;;;;
2022/03/04 01:16:56;;;;;;;16.8;10.85;;;;;;;-4.6;40.4082;95094.06;;;;
2022/03/04 01:17:57;;;;;;;16.8;10.85;;;;;;;-4.6;40.4082;95094.06;;;;
2022/03/04 01:18:58;;;;;;;16.8;10.85;;;;;;;-4.6;40.4082;95094.06;;;;
2022/03/04 01:19:58;;;;;;;16.8;10.85;;;;;;;-4.6;40.4082;95094.06;;;;
2022/03/04 01:20:59;;;;;;;16.8;10.85;;;;;;;-4.6;40.4082;95094.06;;;;
2022/03/04 01:21:59;;;;;;;16.8;10.85;;;;;;;-4.6;40.4082;95094.06;;;;
2022/03/04 01:23:00;;;;;;;13.9;9.849999;;;;;;;-4.61;40.77246;95090.69;;;;
2022/03/04 01:24:01;;;;;;;13.9;9.849999;;;;;;;-4.61;40.77246;95090.69;;;;
2022/03/04 01:25:01;;;;;;;13.9;9.849999;;;;;;;-4.61;40.77246;95090.69;;;;
2022/03/04 01:26:03;;;;;;;13.9;9.849999;;;;;;;-4.61;40.77246;95090.69;;;;
2022/03/04 01:27:04;;;;;;;13.9;9.849999;;;;;;;-4.61;40.77246;95090.69;;;;
2022/03/04 01:28:04;;;;;;;13.9;9.849999;;;;;;;-4.61;40.77246;95090.69;;;;
2022/03/04 01:29:05;;;;;;;13.9;9.849999;;;;;;;-4.61;40.77246;95090.69;;;;
2022/03/04 01:30:05;;;;;;;13.9;9.849999;;;;;;;-4.61;40.77246;95090.69;;;;
2022/03/04 01:31:10;;;;;;;13.9;9.849999;;;;;;;-4.61;40.77246;95090.69;;;;
2022/03/04 01:32:11;;;;;;;13.9;9.849999;;;;;;;-4.61;40.77246;95090.69;;;;
2022/03/04 01:33:12;;;;;;;13.9;9.849999;;;;;;;-4.61;40.77246;95090.69;;;;
2022/03/04 01:34:12;;;;;;;15.45;11;;;;;;;-4.74;41.16602;95080.58;;;;
2022/03/04 01:35:13;;;;;;;15.45;11;;;;;;;-4.74;41.16602;95080.58;;;;
2022/03/04 01:36:14;;;;;;;15.45;11;;;;;;;-4.74;41.16602;95080.58;;;;
2022/03/04 01:37:14;;;;;;;15.45;11;;;;;;;-4.74;41.16602;95080.58;;;;
2022/03/04 01:38:15;;;;;;;15.45;11;;;;;;;-4.74;41.16602;95080.58;;;;
2022/03/04 01:39:15;;;;;;;15.45;11;;;;;;;-4.74;41.16602;95080.58;;;;
2022/03/04 01:40:16;;;;;;;15.45;11;;;;;;;-4.74;41.16602;95080.58;;;;
2022/03/04 01:41:17;;;;;;;15.45;11;;;;;;;-4.74;41.16602;95080.58;;;;
2022/03/04 01:42:17;;;;;;;15.45;11;;;;;;;-4.74;41.16602;95080.58;;;;
2022/03/04 01:43:18;;;;;;;15.45;11;;;;;;;-4.74;41.16602;95080.58;;;;
2022/03/04 01:44:18;;;;;;;14.6;10.5;;;;;;;-4.87;41.6748;95074.77;;;;
2022/03/04 01:45:20;;;;;;;14.6;10.5;;;;;;;-4.87;41.6748;95074.77;;;;
2022/03/04 01:46:20;;;;;;;14.6;10.5;;;;;;;-4.87;41.6748;95074.77;;;;
2022/03/04 01:47:27;;;;;;;14.6;10.5;;;;;;;-4.87;41.6748;95074.77;;;;
2022/03/04 01:48:27;;;;;;;14.6;10.5;;;;;;;-4.87;41.6748;95074.77;;;;
2022/03/04 01:49:28;;;;;;;14.6;10.5;;;;;;;-4.87;41.6748;95074.77;;;;
2022/03/04 01:50:28;;;;;;;14.6;10.5;;;;;;;-4.87;41.6748;95074.77;;;;
2022/03/04 01:51:29;;;;;;;14.6;10.5;;;;;;;-4.87;41.6748;95074.77;;;;
2022/03/04 01:52:30;;;;;;;14.6;10.5;;;;;;;-4.87;41.6748;95074.77;;;;
2022/03/04 01:53:30;;;;;;;14.6;10.5;;;;;;;-4.87;41.6748;95074.77;;;;
2022/03/04 01:54:31;;;;;;;14.6;10.5;;;;;;;-4.87;41.6748;95074.77;;;;
2022/03/04 01:55:31;;;;;;;15.25;10.75;;;;;;;-4.97;42.07129;95067.91;;;;
2022/03/04 01:56:32;;;;;;;15.25;10.75;;;;;;;-4.97;42.07129;95067.91;;;;
2022/03/04 01:57:33;;;;;;;15.25;10.75;;;;;;;-4.97;42.07129;95067.91;;;;
2022/03/04 01:58:34;;;;;;;15.25;10.75;;;;;;;-4.97;42.07129;95067.91;;;;
2022/03/04 01:59:35;;;;;;;15.25;10.75;;;;;;;-4.97;42.07129;95067.91;;;;
2022/03/04 02:00:35;;;;;;;15.25;10.75;;;;;;;-4.97;42.07129;95067.91;;;;
2022/03/04 02:01:36;;;;;;;15.25;10.75;;;;;;;-4.97;42.07129;95067.91;;;;
2022/03/04 02:02:37;;;;;;;15.25;10.75;;;;;;;-4.97;42.07129;95067.91;;;;
2022/03/04 02:03:38;;;;;;;15.25;10.75;;;;;;;-4.97;42.07129;95067.91;;;;
2022/03/04 02:04:39;;;;;;;15.25;10.75;;;;;;;-4.97;42.07129;95067.91;;;;
2022/03/04 02:05:39;;;;;;;13.6;9.45;;;;;;;-5.08;42.44531;95067.69;;;;
2022/03/04 02:06:40;;;;;;;13.6;9.45;;;;;;;-5.08;42.44531;95067.69;;;;
2022/03/04 02:07:40;;;;;;;13.6;9.45;;;;;;;-5.08;42.44531;95067.69;;;;
2022/03/04 02:08:41;;;;;;;13.6;9.45;;;;;;;-5.08;42.44531;95067.69;;;;
2022/03/04 02:09:42;;;;;;;13.6;9.45;;;;;;;-5.08;42.44531;95067.69;;;;
2022/03/04 02:10:43;;;;;;;13.6;9.45;;;;;;;-5.08;42.44531;95067.69;;;;
2022/03/04 02:11:44;;;;;;;13.6;9.45;;;;;;;-5.08;42.44531;95067.69;;;;
2022/03/04 02:12:44;;;;;;;13.6;9.45;;;;;;;-5.08;42.44531;95067.69;;;;
2022/03/04 02:13:45;;;;;;;13.6;9.45;;;;;;;-5.08;42.44531;95067.69;;;;
2022/03/04 02:14:45;;;;;;;13.6;9.45;;;;;;;-5.08;42.44531;95067.69;;;;
2022/03/04 02:15:46;;;;;;;13.6;9.45;;;;;;;-5.08;42.44531;95067.69;;;;
2022/03/04 02:16:47;;;;;;;14.7;10.55;;;;;;;-5.18;42.7998;95055.89;;;;
2022/03/04 02:17:49;;;;;;;14.7;10.55;;;;;;;-5.18;42.7998;95055.89;;;;
2022/03/04 02:18:50;;;;;;;14.7;10.55;;;;;;;-5.18;42.7998;95055.89;;;;
2022/03/04 02:19:51;;;;;;;14.7;10.55;;;;;;;-5.18;42.7998;95055.89;;;;
2022/03/04 02:20:52;;;;;;;14.7;10.55;;;;;;;-5.18;42.7998;95055.89;;;;
2022/03/04 02:21:53;;;;;;;14.7;10.55;;;;;;;-5.18;42.7998;95055.89;;;;
2022/03/04 02:22:57;;;;;;;14.7;10.55;;;;;;;-5.18;42.7998;95055.89;;;;
2022/03/04 02:23:57;;;;;;;14.7;10.55;;;;;;;-5.18;42.7998;95055.89;;;;
2022/03/04 02:24:58;;;;;;;14.7;10.55;;;;;;;-5.18;42.7998;95055.89;;;;
2022/03/04 02:25:59;;;;;;;14.7;10.55;;;;;;;-5.18;42.7998;95055.89;;;;
2022/03/04 02:26:59;;;;;;;15.6;10.75;;;;;;;-5.26;43.20703;95063.7;;;;
2022/03/04 02:28:02;;;;;;;15.6;10.75;;;;;;;-5.26;43.20703;95063.7;;;;
2022/03/04 02:29:02;;;;;;;15.6;10.75;;;;;;;-5.26;43.20703;95063.7;;;;
2022/03/04 02:30:03;;;;;;;15.6;10.75;;;;;;;-5.26;43.20703;95063.7;;;;
2022/03/04 02:31:05;;;;;;;15.6;10.75;;;;;;;-5.26;43.20703;95063.7;;;;
2022/03/04 02:32:06;;;;;;;15.6;10.75;;;;;;;-5.26;43.20703;95063.7;;;;
2022/03/04 02:33:07;;;;;;;15.6;10.75;;;;;;;-5.26;43.20703;95063.7;;;;
2022/03/04 02:34:08;;;;;;;15.6;10.75;;;;;;;-5.26;43.20703;95063.7;;;;
2022/03/04 02:35:08;;;;;;;15.6;10.75;;;;;;;-5.26;43.20703;95063.7;;;;
2022/03/04 02:36:09;;;;;;;15.6;10.75;;;;;;;-5.26;43.20703;95063.7;;;;
2022/03/04 02:37:09;;;;;;;15.6;10.75;;;;;;;-5.26;43.20703;95063.7;;;;
2022/03/04 02:38:10;;;;;;;16.05;11.8;;;;;;;-5.35;43.48828;95059.74;;;;
2022/03/04 02:39:10;;;;;;;16.05;11.8;;;;;;;-5.35;43.48828;95059.74;;;;
2022/03/04 02:40:11;;;;;;;16.05;11.8;;;;;;;-5.35;43.48828;95059.74;;;;
2022/03/04 02:41:12;;;;;;;16.05;11.8;;;;;;;-5.35;43.48828;95059.74;;;;
2022/03/04 02:42:13;;;;;;;16.05;11.8;;;;;;;-5.35;43.48828;95059.74;;;;
2022/03/04 02:43:13;;;;;;;16.05;11.8;;;;;;;-5.35;43.48828;95059.74;;;;
2022/03/04 02:44:14;;;;;;;16.05;11.8;;;;;;;-5.35;43.48828;95059.74;;;;
2022/03/04 02:45:15;;;;;;;16.05;11.8;;;;;;;-5.35;43.48828;95059.74;;;;
2022/03/04 02:46:15;;;;;;;16.05;11.8;;;;;;;-5.35;43.48828;95059.74;;;;
2022/03/04 02:47:16;;;;;;;16.05;11.8;;;;;;;-5.35;43.48828;95059.74;;;;
2022/03/04 02:48:16;;;;;;;17.15;11.95;;;;;;;-5.44;43.9375;95043.94;;;;
2022/03/04 02:49:17;;;;;;;17.15;11.95;;;;;;;-5.44;43.9375;95043.94;;;;
2022/03/04 02:50:18;;;;;;;17.15;11.95;;;;;;;-5.44;43.9375;95043.94;;;;
2022/03/04 02:51:18;;;;;;;17.15;11.95;;;;;;;-5.44;43.9375;95043.94;;;;
2022/03/04 02:52:19;;;;;;;17.15;11.95;;;;;;;-5.44;43.9375;95043.94;;;;
2022/03/04 02:53:19;;;;;;;17.15;11.95;;;;;;;-5.44;43.9375;95043.94;;;;
2022/03/04 02:54:21;;;;;;;17.15;11.95;;;;;;;-5.44;43.9375;95043.94;;;;
2022/03/04 02:55:21;;;;;;;17.15;11.95;;;;;;;-5.44;43.9375;95043.94;;;;
2022/03/04 02:56:22;;;;;;;17.15;11.95;;;;;;;-5.44;43.9375;95043.94;;;;
2022/03/04 02:57:23;;;;;;;17.15;11.95;;;;;;;-5.44;43.9375;95043.94;;;;
2022/03/04 02:58:24;;;;;;;17.15;11.95;;;;;;;-5.44;43.9375;95043.94;;;;
2022/03/04 02:59:24;;;;;;;17.5;12.45;;;;;;;-5.48;44.26563;95034.67;;;;
2022/03/04 03:00:25;;;;;;;17.5;12.45;;;;;;;-5.48;44.26563;95034.67;;;;
2022/03/04 03:01:26;;;;;;;17.5;12.45;;;;;;;-5.48;44.26563;95034.67;;;;
2022/03/04 03:02:27;;;;;;;17.5;12.45;;;;;;;-5.48;44.26563;95034.67;;;;
2022/03/04 03:03:27;;;;;;;17.5;12.45;;;;;;;-5.48;44.26563;95034.67;;;;
2022/03/04 03:04:28;;;;;;;17.5;12.45;;;;;;;-5.48;44.26563;95034.67;;;;
2022/03/04 03:05:28;;;;;;;17.5;12.45;;;;;;;-5.48;44.26563;95034.67;;;;
2022/03/04 03:06:29;;;;;;;17.5;12.45;;;;;;;-5.48;44.26563;95034.67;;;;
2022/03/04 03:07:29;;;;;;;17.5;12.45;;;;;;;-5.48;44.26563;95034.67;;;;
2022/03/04 03:08:30;;;;;;;17.5;12.45;;;;;;;-5.48;44.26563;95034.67;;;;
2022/03/04 03:09:31;;;;;;;17.5;12.55;;;;;;;-5.56;44.48535;95029.8;;;;
2022/03/04 03:10:32;;;;;;;17.5;12.55;;;;;;;-5.56;44.48535;95029.8;;;;
2022/03/04 03:11:33;;;;;;;17.5;12.55;;;;;;;-5.56;44.48535;95029.8;;;;
2022/03/04 03:12:34;;;;;;;17.5;12.55;;;;;;;-5.56;44.48535;95029.8;;;;
2022/03/04 03:13:34;;;;;;;17.5;12.55;;;;;;;-5.56;44.48535;95029.8;;;;
2022/03/04 03:14:35;;;;;;;17.5;12.55;;;;;;;-5.56;44.48535;95029.8;;;;
2022/03/04 03:15:35;;;;;;;17.5;12.55;;;;;;;-5.56;44.48535;95029.8;;;;
2022/03/04 03:16:36;;;;;;;17.5;12.55;;;;;;;-5.56;44.48535;95029.8;;;;
2022/03/04 03:17:37;;;;;;;17.5;12.55;;;;;;;-5.56;44.48535;95029.8;;;;
2022/03/04 03:18:38;;;;;;;17.5;12.55;;;;;;;-5.56;44.48535;95029.8;;;;
2022/03/04 03:19:38;;;;;;;17.5;12.55;;;;;;;-5.56;44.48535;95029.8;;;;
2022/03/04 03:20:39;;;;;;;19.55;12.9;;;;;;;-5.71;44.86426;95032.08;;;;
2022/03/04 03:21:39;;;;;;;19.55;12.9;;;;;;;-5.71;44.86426;95032.08;;;;
2022/03/04 03:22:40;;;;;;;19.55;12.9;;;;;;;-5.71;44.86426;95032.08;;;;
2022/03/04 03:23:41;;;;;;;19.55;12.9;;;;;;;-5.71;44.86426;95032.08;;;;
2022/03/04 03:24:41;;;;;;;19.55;12.9;;;;;;;-5.71;44.86426;95032.08;;;;
2022/03/04 03:25:42;;;;;;;19.55;12.9;;;;;;;-5.71;44.86426;95032.08;;;;
2022/03/04 03:26:43;;;;;;;19.55;12.9;;;;;;;-5.71;44.86426;95032.08;;;;
2022/03/04 03:27:43;;;;;;;19.55;12.9;;;;;;;-5.71;44.86426;95032.08;;;;
2022/03/04 03:28:43;;;;;;;19.55;12.9;;;;;;;-5.71;44.86426;95032.08;;;;
2022/03/04 03:29:44;;;;;;;19.55;12.9;;;;;;;-5.71;44.86426;95032.08;;;;
2022/03/04 03:30:45;;;;;;;19.55;12.9;;;;;;;-5.71;44.86426;95032.08;;;;
2022/03/04 03:31:45;;;;;;;17.5;12.65;;;;;;;-5.8;45.15527;95032.1;;;;
2022/03/04 03:32:46;;;;;;;17.5;12.65;;;;;;;-5.8;45.15527;95032.1;;;;
2022/03/04 03:33:47;;;;;;;17.5;12.65;;;;;;;-5.8;45.15527;95032.1;;;;
2022/03/04 03:34:47;;;;;;;17.5;12.65;;;;;;;-5.8;45.15527;95032.1;;;;
2022/03/04 03:35:48;;;;;;;17.5;12.65;;;;;;;-5.8;45.15527;95032.1;;;;
2022/03/04 03:36:49;;;;;;;17.5;12.65;;;;;;;-5.8;45.15527;95032.1;;;;
2022/03/04 03:37:50;;;;;;;17.5;12.65;;;;;;;-5.8;45.15527;95032.1;;;;
2022/03/04 03:38:50;;;;;;;17.5;12.65;;;;;;;-5.8;45.15527;95032.1;;;;
2022/03/04 03:39:51;;;;;;;17.5;12.65;;;;;;;-5.8;45.15527;95032.1;;;;
2022/03/04 03:40:52;;;;;;;17.5;12.65;;;;;;;-5.8;45.15527;95032.1;;;;
2022/03/04 03:41:52;;;;;;;19.85;12.7;;;;;;;-5.9;45.4668;95051.06;;;;
2022/03/04 03:42:53;;;;;;;19.85;12.7;;;;;;;-5.9;45.4668;95051.06;;;;
2022/03/04 03:43:53;;;;;;;19.85;12.7;;;;;;;-5.9;45.4668;95051.06;;;;
2022/03/04 03:44:54;;;;;;;19.85;12.7;;;;;;;-5.9;45.4668;95051.06;;;;
2022/03/04 03:45:54;;;;;;;19.85;12.7;;;;;;;-5.9;45.4668;95051.06;;;;
2022/03/04 03:46:55;;;;;;;19.85;12.7;;;;;;;-5.9;45.4668;95051.06;;;;
2022/03/04 03:47:56;;;;;;;19.85;12.7;;;;;;;-5.9;45.4668;95051.06;;;;
2022/03/04 03:48:56;;;;;;;19.85;12.7;;;;;;;-5.9;45.4668;95051.06;;;;
2022/03/04 03:49:57;;;;;;;19.85;12.7;;;;;;;-5.9;45.4668;95051.06;;;;
2022/03/04 03:50:58;;;;;;;19.85;12.7;;;;;;;-5.9;45.4668;95051.06;;;;
2022/03/04 03:51:59;;;;;;;19.85;12.7;;;;;;;-5.9;45.4668;95051.06;;;;
2022/03/04 03:52:59;;;;;;;19.5;12.4;;;;;;;-6;45.85059;95048.92;;;;
2022/03/04 03:54:00;;;;;;;19.5;12.4;;;;;;;-6;45.85059;95048.92;;;;
2022/03/04 03:55:00;;;;;;;19.5;12.4;;;;;;;-6;45.85059;95048.92;;;;
2022/03/04 03:56:01;;;;;;;19.5;12.4;;;;;;;-6;45.85059;95048.92;;;;
2022/03/04 03:57:01;;;;;;;19.5;12.4;;;;;;;-6;45.85059;95048.92;;;;
2022/03/04 03:58:02;;;;;;;19.5;12.4;;;;;;;-6;45.85059;95048.92;;;;
2022/03/04 03:59:03;;;;;;;19.5;12.4;;;;;;;-6;45.85059;95048.92;;;;
2022/03/04 04:00:03;;;;;;;19.5;12.4;;;;;;;-6;45.85059;95048.92;;;;
2022/03/04 04:01:06;;;;;;;19.5;12.4;;;;;;;-6;45.85059;95048.92;;;;
2022/03/04 04:02:07;;;;;;;19.5;12.4;;;;;;;-6;45.85059;95048.92;;;;
2022/03/04 04:03:08;;;;;;;19.2;13.05;;;;;;;-6;46.10059;95052.39;;;;
2022/03/04 04:04:09;;;;;;;19.2;13.05;;;;;;;-6;46.10059;95052.39;;;;
2022/03/04 04:05:10;;;;;;;19.2;13.05;;;;;;;-6;46.10059;95052.39;;;;
2022/03/04 04:06:11;;;;;;;19.2;13.05;;;;;;;-6;46.10059;95052.39;;;;
2022/03/04 04:07:11;;;;;;;19.2;13.05;;;;;;;-6;46.10059;95052.39;;;;
2022/03/04 04:08:12;;;;;;;19.2;13.05;;;;;;;-6;46.10059;95052.39;;;;
2022/03/04 04:09:12;;;;;;;19.2;13.05;;;;;;;-6;46.10059;95052.39;;;;
2022/03/04 04:10:13;;;;;;;19.2;13.05;;;;;;;-6;46.10059;95052.39;;;;
2022/03/04 04:11:13;;;;;;;19.2;13.05;;;;;;;-6;46.10059;95052.39;;;;
2022/03/04 04:12:15;;;;;;;19.2;13.05;;;;;;;-6;46.10059;95052.39;;;;
2022/03/04 04:13:15;;;;;;;19.2;13.05;;;;;;;-6;46.10059;95052.39;;;;
2022/03/04 04:14:16;;;;;;;19.65;13.85;;;;;;;-5.97;46.29004;95063.11;;;;
2022/03/04 04:15:17;;;;;;;19.65;13.85;;;;;;;-5.97;46.29004;95063.11;;;;
2022/03/04 04:16:18;;;;;;;19.65;13.85;;;;;;;-5.97;46.29004;95063.11;;;;
2022/03/04 04:17:18;;;;;;;19.65;13.85;;;;;;;-5.97;46.29004;95063.11;;;;
2022/03/04 04:18:19;;;;;;;19.65;13.85;;;;;;;-5.97;46.29004;95063.11;;;;
2022/03/04 04:19:19;;;;;;;19.65;13.85;;;;;;;-5.97;46.29004;95063.11;;;;
2022/03/04 04:20:20;;;;;;;19.65;13.85;;;;;;;-5.97;46.29004;95063.11;;;;
2022/03/04 04:21:20;;;;;;;19.65;13.85;;;;;;;-5.97;46.29004;95063.11;;;;
2022/03/04 04:22:21;;;;;;;19.65;13.85;;;;;;;-5.97;46.29004;95063.11;;;;
2022/03/04 04:23:21;;;;;;;19.65;13.85;;;;;;;-5.97;46.29004;95063.11;;;;
2022/03/04 04:24:22;;;;;;;21.55;14.2;;;;;;;-6.02;46.48145;95066.63;;;;
2022/03/04 04:25:22;;;;;;;21.55;14.2;;;;;;;-6.02;46.48145;95066.63;;;;
2022/03/04 04:26:23;;;;;;;21.55;14.2;;;;;;;-6.02;46.48145;95066.63;;;;
2022/03/04 04:27:23;;;;;;;21.55;14.2;;;;;;;-6.02;46.48145;95066.63;;;;
2022/03/04 04:28:25;;;;;;;21.55;14.2;;;;;;;-6.02;46.48145;95066.63;;;;
2022/03/04 04:29:26;;;;;;;21.55;14.2;;;;;;;-6.02;46.48145;95066.63;;;;
2022/03/04 04:30:27;;;;;;;21.55;14.2;;;;;;;-6.02;46.48145;95066.63;;;;
2022/03/04 04:31:27;;;;;;;21.55;14.2;;;;;;;-6.02;46.48145;95066.63;;;;
2022/03/04 04:32:28;;;;;;;21.55;14.2;;;;;;;-6.02;46.48145;95066.63;;;;
2022/03/04 04:33:28;;;;;;;21.55;14.2;;;;;;;-6.02;46.48145;95066.63;;;;
2022/03/04 04:34:29;;;;;;;21.55;14.2;;;;;;;-6.02;46.48145;95066.63;;;;
2022/03/04 04:35:29;;;;;;;20.2;13.3;;;;;;;-6.09;46.71289;95080.41;;;;
2022/03/04 04:36:30;;;;;;;20.2;13.3;;;;;;;-6.09;46.71289;95080.41;;;;
2022/03/04 04:37:30;;;;;;;20.2;13.3;;;;;;;-6.09;46.71289;95080.41;;;;
2022/03/04 04:38:31;;;;;;;20.2;13.3;;;;;;;-6.09;46.71289;95080.41;;;;
2022/03/04 04:39:32;;;;;;;20.2;13.3;;;;;;;-6.09;46.71289;95080.41;;;;
2022/03/04 04:40:32;;;;;;;20.2;13.3;;;;;;;-6.09;46.71289;95080.41;;;;
2022/03/04 04:41:34;;;;;;;20.2;13.3;;;;;;;-6.09;46.71289;95080.41;;;;
2022/03/04 04:42:35;;;;;;;20.2;13.3;;;;;;;-6.09;46.71289;95080.41;;;;
2022/03/04 04:43:35;;;;;;;20.2;13.3;;;;;;;-6.09;46.71289;95080.41;;;;
2022/03/04 04:44:36;;;;;;;20.2;13.3;;;;;;;-6.09;46.71289;95080.41;;;;
2022/03/04 04:45:37;;;;;;;20.95;14.1;;;;;;;-6.25;47.15039;95075.31;;;;
2022/03/04 04:46:37;;;;;;;20.95;14.1;;;;;;;-6.25;47.15039;95075.31;;;;
2022/03/04 04:47:38;;;;;;;20.95;14.1;;;;;;;-6.25;47.15039;95075.31;;;;
2022/03/04 04:48:39;;;;;;;20.95;14.1;;;;;;;-6.25;47.15039;95075.31;;;;
2022/03/04 04:49:39;;;;;;;20.95;14.1;;;;;;;-6.25;47.15039;95075.31;;;;
2022/03/04 04:50:40;;;;;;;20.95;14.1;;;;;;;-6.25;47.15039;95075.31;;;;
2022/03/04 04:51:41;;;;;;;20.95;14.1;;;;;;;-6.25;47.15039;95075.31;;;;
2022/03/04 04:52:41;;;;;;;20.95;14.1;;;;;;;-6.25;47.15039;95075.31;;;;
2022/03/04 04:53:42;;;;;;;20.95;14.1;;;;;;;-6.25;47.15039;95075.31;;;;
2022/03/04 04:54:42;;;;;;;20.95;14.1;;;;;;;-6.25;47.15039;95075.31;;;;
2022/03/04 04:55:43;;;;;;;20.95;14.1;;;;;;;-6.25;47.15039;95075.31;;;;
2022/03/04 04:56:43;;;;;;;19.95;13.75;;;;;;;-6.39;47.50781;95089.76;;;;
2022/03/04 04:57:44;;;;;;;19.95;13.75;;;;;;;-6.39;47.50781;95089.76;;;;
2022/03/04 04:58:44;;;;;;;19.95;13.75;;;;;;;-6.39;47.50781;95089.76;;;;
2022/03/04 04:59:45;;;;;;;19.95;13.75;;;;;;;-6.39;47.50781;95089.76;;;;
2022/03/04 05:00:50;;;;;;;19.95;13.75;;;;;;;-6.39;47.50781;95089.76;;;;
2022/03/04 05:01:51;;;;;;;19.95;13.75;;;;;;;-6.39;47.50781;95089.76;;;;
2022/03/04 05:02:52;;;;;;;19.95;13.75;;;;;;;-6.39;47.50781;95089.76;;;;
2022/03/04 05:03:52;;;;;;;19.95;13.75;;;;;;;-6.39;47.50781;95089.76;;;;
2022/03/04 05:04:53;;;;;;;19.95;13.75;;;;;;;-6.39;47.50781;95089.76;;;;
2022/03/04 05:05:53;;;;;;;19.95;13.75;;;;;;;-6.39;47.50781;95089.76;;;;
2022/03/04 05:06:56;;;;;;;22.25;14.3;;;;;;;-6.51;47.8457;95104.41;;;;
2022/03/04 05:07:56;;;;;;;22.25;14.3;;;;;;;-6.51;47.8457;95104.41;;;;
2022/03/04 05:08:57;;;;;;;22.25;14.3;;;;;;;-6.51;47.8457;95104.41;;;;
2022/03/04 05:09:57;;;;;;;22.25;14.3;;;;;;;-6.51;47.8457;95104.41;;;;
2022/03/04 05:10:58;;;;;;;22.25;14.3;;;;;;;-6.51;47.8457;95104.41;;;;
2022/03/04 05:11:58;;;;;;;22.25;14.3;;;;;;;-6.51;47.8457;95104.41;;;;
2022/03/04 05:12:59;;;;;;;22.25;14.3;;;;;;;-6.51;47.8457;95104.41;;;;
2022/03/04 05:13:59;;;;;;;22.25;14.3;;;;;;;-6.51;47.8457;95104.41;;;;
2022/03/04 05:15:00;;;;;;;22.25;14.3;;;;;;;-6.51;47.8457;95104.41;;;;
2022/03/04 05:16:01;;;;;;;22.25;14.3;;;;;;;-6.51;47.8457;95104.41;;;;
2022/03/04 05:17:02;;;;;;;22.25;14.3;;;;;;;-6.51;47.8457;95104.41;;;;
2022/03/04 05:18:03;;;;;;;22.6;14.75;;;;;;;-6.5;48.06543;95103.88;;;;
2022/03/04 05:19:03;;;;;;;22.6;14.75;;;;;;;-6.5;48.06543;95103.88;;;;
2022/03/04 05:20:04;;;;;;;22.6;14.75;;;;;;;-6.5;48.06543;95103.88;;;;
2022/03/04 05:21:05;;;;;;;22.6;14.75;;;;;;;-6.5;48.06543;95103.88;;;;
2022/03/04 05:22:06;;;;;;;22.6;14.75;;;;;;;-6.5;48.06543;95103.88;;;;
2022/03/04 05:23:06;;;;;;;22.6;14.75;;;;;;;-6.5;48.06543;95103.88;;;;
2022/03/04 05:24:07;;;;;;;22.6;14.75;;;;;;;-6.5;48.06543;95103.88;;;;
2022/03/04 05:25:08;;;;;;;22.6;14.75;;;;;;;-6.5;48.06543;95103.88;;;;
2022/03/04 05:26:10;;;;;;;22.6;14.75;;;;;;;-6.5;48.06543;95103.88;;;;
2022/03/04 05:27:10;;;;;;;22.6;14.75;;;;;;;-6.5;48.06543;95103.88;;;;
2022/03/04 05:28:11;;;;;;;22.6;14.75;;;;;;;-6.5;48.06543;95103.88;;;;
2022/03/04 05:29:11;;;;;;;24.95;15.75;;;;;;;-6.59;48.23242;95111.68;;;;
2022/03/04 05:30:12;;;;;;;24.95;15.75;;;;;;;-6.59;48.23242;95111.68;;;;
2022/03/04 05:31:13;;;;;;;24.95;15.75;;;;;;;-6.59;48.23242;95111.68;;;;
2022/03/04 05:32:14;;;;;;;24.95;15.75;;;;;;;-6.59;48.23242;95111.68;;;;
2022/03/04 05:33:14;;;;;;;24.95;15.75;;;;;;;-6.59;48.23242;95111.68;;;;
2022/03/04 05:34:15;;;;;;;24.95;15.75;;;;;;;-6.59;48.23242;95111.68;;;;
2022/03/04 05:35:15;;;;;;;24.95;15.75;;;;;;;-6.59;48.23242;95111.68;;;;
2022/03/04 05:36:16;;;;;;;24.95;15.75;;;;;;;-6.59;48.23242;95111.68;;;;
2022/03/04 05:37:17;;;;;;;24.95;15.75;;;;;;;-6.59;48.23242;95111.68;;;;
2022/03/04 05:38:17;;;;;;;24.95;15.75;;;;;;;-6.59;48.23242;95111.68;;;;
2022/03/04 05:39:18;;;;;;;24.95;15.75;;;;;;;-6.59;48.23242;95111.68;;;;
2022/03/04 05:40:19;;;;;;;24.95;15.75;;;;;;;-6.59;48.23242;95111.68;;;;
2022/03/04 05:41:19;;;;;;;24.95;15.75;;;;;;;-6.59;48.23242;95111.68;;;;